createdAt,value
2023-04-28T00:00:05.768Z,49607.41
2023-04-28T00:02:32.717Z,49567.53
2023-04-28T00:04:59.643Z,49605.41
2023-04-28T00:07:26.918Z,49599.41
2023-04-28T00:09:53.744Z,49595.44
2023-04-28T00:12:20.680Z,49611.38
2023-04-28T00:14:47.431Z,49589.44
2023-04-28T00:17:14.083Z,49581.47
2023-04-28T00:19:40.751Z,49607.41
2023-04-28T00:22:07.473Z,49587.47
2023-04-28T00:24:36.189Z,49577.50
2023-04-28T00:27:03.376Z,49623.34
2023-04-28T00:29:30.113Z,49595.44
2023-04-28T00:31:56.981Z,49599.41
2023-04-28T00:34:23.918Z,49615.38
2023-04-28T00:36:50.695Z,49595.44
2023-04-28T00:39:18.623Z,49577.50
2023-04-28T00:41:45.423Z,49611.38
2023-04-28T00:44:12.572Z,49623.34
2023-04-28T00:46:39.745Z,49623.34
2023-04-28T00:49:06.609Z,49567.53
2023-04-28T00:51:33.928Z,49655.25
2023-04-28T00:54:01.033Z,49619.34
2023-04-28T00:56:31.283Z,49641.28
2023-04-28T00:58:58.732Z,49641.28
2023-04-28T01:01:25.865Z,49631.31
2023-04-28T01:03:53.279Z,49599.41
2023-04-28T01:06:20.472Z,49581.47
2023-04-28T01:08:50.421Z,49607.41
2023-04-28T01:11:17.897Z,49603.41
2023-04-28T01:14:10.775Z,49659.22
2023-04-28T01:16:41.003Z,49619.34
2023-04-28T01:19:12.014Z,49597.44
2023-04-28T01:21:39.600Z,49625.34
2023-04-28T01:24:19.293Z,49595.44
2023-04-28T01:26:46.353Z,49597.44
2023-04-28T01:29:13.154Z,49625.34
2023-04-28T01:31:41.530Z,49603.41
2023-04-28T01:34:08.238Z,49627.31
2023-04-28T01:36:37.570Z,49623.34
2023-04-28T01:39:05.692Z,49595.44
2023-04-28T01:41:34.606Z,49619.34
2023-04-28T01:44:01.737Z,49619.34
2023-04-28T01:46:28.568Z,49619.34
2023-04-28T01:48:55.470Z,49621.34
2023-04-28T01:51:22.128Z,49647.25
2023-04-28T01:53:48.795Z,49617.38
2023-04-28T01:56:15.659Z,49609.38
2023-04-28T01:58:42.878Z,49611.38
2023-04-28T02:01:10.142Z,49625.34
2023-04-28T02:03:37.144Z,49607.41
2023-04-28T02:06:04.893Z,49619.34
2023-04-28T02:08:31.833Z,49595.44
2023-04-28T02:10:58.527Z,49627.31
2023-04-28T02:13:25.565Z,49627.31
2023-04-28T02:15:53.151Z,49587.47
2023-04-28T02:18:21.067Z,49625.34
2023-04-28T02:20:47.823Z,49639.28
2023-04-28T02:23:14.461Z,49605.41
2023-04-28T02:25:41.170Z,49615.38
2023-04-28T02:28:07.850Z,49603.41
2023-04-28T02:30:34.793Z,49617.38
2023-04-28T02:33:01.600Z,49649.25
2023-04-28T02:35:28.395Z,49635.31
2023-04-28T02:37:55.365Z,49659.22
2023-04-28T02:40:22.140Z,49635.31
2023-04-28T02:42:48.862Z,49649.25
2023-04-28T02:45:15.654Z,49663.22
2023-04-28T02:47:42.331Z,49603.41
2023-04-28T02:50:09.518Z,49627.31
2023-04-28T02:52:36.352Z,49621.34
2023-04-28T02:55:04.837Z,49627.31
2023-04-28T02:57:31.929Z,49603.41
2023-04-28T02:59:58.623Z,49609.38
2023-04-28T03:02:29.623Z,49621.34
2023-04-28T03:04:56.510Z,49649.25
2023-04-28T03:07:23.427Z,49619.34
2023-04-28T03:09:50.221Z,49639.28
2023-04-28T03:12:17.012Z,49635.31
2023-04-28T03:14:46.178Z,49635.31
2023-04-28T03:17:14.349Z,49631.31
2023-04-28T03:19:41.549Z,49647.25
2023-04-28T03:22:08.424Z,49617.38
2023-04-28T03:24:35.071Z,49611.38
2023-04-28T03:27:03.758Z,49637.28
2023-04-28T03:29:30.686Z,49595.44
2023-04-28T03:31:57.410Z,49639.28
2023-04-28T03:34:24.107Z,49635.31
2023-04-28T03:36:51.061Z,49631.31
2023-04-28T03:39:24.362Z,49623.34
2023-04-28T03:41:51.131Z,49609.38
2023-04-28T03:44:36.470Z,49623.34
2023-04-28T03:47:04.278Z,49627.31
2023-04-28T03:49:31.069Z,49647.25
2023-04-28T03:51:58.011Z,49639.28
2023-04-28T03:54:26.564Z,49671.19
2023-04-28T03:56:53.316Z,49615.38
2023-04-28T03:59:19.984Z,49625.34
2023-04-28T04:01:46.717Z,49627.31
2023-04-28T04:04:13.851Z,49629.31
2023-04-28T04:06:41.157Z,49631.31
2023-04-28T04:09:09.348Z,49621.34
2023-04-28T04:11:36.173Z,49631.31
2023-04-28T04:14:02.980Z,49647.25
2023-04-28T04:16:31.005Z,49641.28
2023-04-28T04:18:58.761Z,49635.31
2023-04-28T04:21:41.109Z,49609.38
2023-04-28T04:24:08.203Z,49643.28
2023-04-28T04:26:35.091Z,49619.34
2023-04-28T04:29:04.274Z,49679.16
2023-04-28T04:31:33.120Z,49643.28
2023-04-28T04:34:00.110Z,49625.34
2023-04-28T04:36:27.140Z,49623.34
2023-04-28T04:38:54.679Z,49627.31
2023-04-28T04:41:23.098Z,49615.38
2023-04-28T04:43:57.262Z,49639.28
2023-04-28T04:46:29.970Z,49631.31
2023-04-28T04:48:56.935Z,49635.31
2023-04-28T04:51:23.590Z,49651.25
2023-04-28T04:53:50.366Z,49629.31
2023-04-28T04:56:17.140Z,49645.28
2023-04-28T04:58:46.842Z,49605.41
2023-04-28T05:01:46.210Z,49639.28
2023-04-28T05:04:13.142Z,49639.28
2023-04-28T05:06:40.693Z,49671.19
2023-04-28T05:09:07.480Z,49637.28
2023-04-28T05:11:34.225Z,49615.38
2023-04-28T05:14:01.149Z,49651.25
2023-04-28T05:16:28.814Z,49645.28
2023-04-28T05:19:07.528Z,49679.16
2023-04-28T05:21:34.340Z,49649.25
2023-04-28T05:24:00.993Z,49649.25
2023-04-28T05:26:28.150Z,49647.25
2023-04-28T05:28:58.914Z,49651.25
2023-04-28T05:31:25.978Z,49639.28
2023-04-28T05:33:53.865Z,49659.22
2023-04-28T05:36:20.533Z,49663.22
2023-04-28T05:38:47.372Z,49661.22
2023-04-28T05:41:14.234Z,49647.25
2023-04-28T05:43:41.485Z,49665.22
2023-04-28T05:46:18.316Z,49611.38
2023-04-28T05:48:55.616Z,49675.19
2023-04-28T05:51:22.616Z,49673.19
2023-04-28T05:53:49.337Z,49641.28
2023-04-28T05:56:17.109Z,49621.34
2023-04-28T05:58:47.377Z,49661.22
2023-04-28T06:01:15.166Z,49651.25
2023-04-28T06:03:42.323Z,49659.22
2023-04-28T06:06:10.442Z,49643.28
2023-04-28T06:08:38.173Z,49647.25
2023-04-28T06:11:06.134Z,49663.22
2023-04-28T06:13:33.168Z,49667.19
2023-04-28T06:16:00.117Z,49659.22
2023-04-28T06:18:27.190Z,49653.25
2023-04-28T06:20:53.845Z,49653.25
2023-04-28T06:23:20.642Z,49671.19
2023-04-28T06:25:50.415Z,49641.28
2023-04-28T06:28:17.116Z,49629.31
2023-04-28T06:30:43.784Z,49653.25
2023-04-28T06:33:10.615Z,49675.19
2023-04-28T06:35:39.665Z,49667.19
2023-04-28T06:38:06.768Z,49639.28
2023-04-28T06:40:33.439Z,49649.25
2023-04-28T06:43:01.894Z,49623.34
2023-04-28T06:45:39.443Z,49653.25
2023-04-28T06:48:06.981Z,49645.28
2023-04-28T06:50:37.969Z,49649.25
2023-04-28T06:53:07.707Z,49661.22
2023-04-28T06:55:35.158Z,49653.25
2023-04-28T06:58:02.006Z,49649.25
2023-04-28T07:00:28.849Z,49647.25
2023-04-28T07:02:55.912Z,49627.31
2023-04-28T07:05:23.147Z,49665.22
2023-04-28T07:07:49.948Z,49655.25
2023-04-28T07:10:16.863Z,49653.25
2023-04-28T07:12:43.658Z,49633.31
2023-04-28T07:15:11.080Z,49643.28
2023-04-28T07:17:38.194Z,49643.28
2023-04-28T07:20:06.928Z,49657.22
2023-04-28T07:22:33.608Z,49639.28
2023-04-28T07:25:00.380Z,49657.22
2023-04-28T07:27:27.062Z,49665.22
2023-04-28T07:29:53.825Z,49643.28
2023-04-28T07:32:20.806Z,49613.38
2023-04-28T07:34:47.602Z,49663.22
2023-04-28T07:37:14.323Z,49663.22
2023-04-28T07:39:41.824Z,49659.22
2023-04-28T07:42:08.701Z,49621.34
2023-04-28T07:44:35.641Z,49647.25
2023-04-28T07:47:03.499Z,49655.25
2023-04-28T07:49:30.403Z,49657.22
2023-04-28T07:51:57.347Z,49607.41
2023-04-28T07:54:24.140Z,49633.31
2023-04-28T07:56:51.447Z,49663.22
2023-04-28T07:59:18.153Z,49677.16
2023-04-28T08:01:44.841Z,49647.25
2023-04-28T08:04:11.961Z,49685.13
2023-04-28T08:06:40.079Z,49639.28
2023-04-28T08:09:06.750Z,49661.22
2023-04-28T08:11:33.751Z,49667.19
2023-04-28T08:14:03.049Z,49663.22
2023-04-28T08:16:31.076Z,49647.25
2023-04-28T08:18:59.019Z,49669.19
2023-04-28T08:21:27.067Z,49659.22
2023-04-28T08:23:53.790Z,49631.31
2023-04-28T08:26:20.561Z,49695.09
2023-04-28T08:28:47.436Z,49587.47
2023-04-28T08:31:16.003Z,49649.25
2023-04-28T08:33:48.722Z,49655.25
2023-04-28T08:36:15.558Z,49623.34
2023-04-28T08:38:43.469Z,49695.09
2023-04-28T08:41:10.480Z,49651.25
2023-04-28T08:43:37.377Z,49667.19
2023-04-28T08:46:07.240Z,49655.25
2023-04-28T08:48:46.971Z,49671.19
2023-04-28T08:51:18.901Z,49669.19
2023-04-28T08:56:24.372Z,49661.22
2023-04-28T08:58:53.172Z,49641.28
2023-04-28T09:01:19.916Z,49685.13
2023-04-28T09:03:48.151Z,49649.25
2023-04-28T09:06:15.054Z,49671.19
2023-04-28T09:08:41.763Z,49641.28
2023-04-28T09:11:13.616Z,49639.28
2023-04-28T09:13:41.420Z,49669.19
2023-04-28T09:16:08.483Z,49625.34
2023-04-28T09:18:35.318Z,49631.31
2023-04-28T09:21:13.055Z,49663.22
2023-04-28T09:23:49.538Z,49643.28
2023-04-28T09:26:16.368Z,49669.19
2023-04-28T09:28:43.077Z,49643.28
2023-04-28T09:31:28.091Z,49667.19
2023-04-28T09:33:59.117Z,49665.22
2023-04-28T09:36:30.705Z,49661.22
2023-04-28T09:38:59.484Z,49629.31
2023-04-28T09:41:42.026Z,49641.28
2023-04-28T09:44:17.069Z,49611.38
2023-04-28T09:46:45.896Z,49637.28
2023-04-28T09:49:13.379Z,49673.19
2023-04-28T09:51:40.821Z,49621.34
2023-04-28T09:54:07.775Z,49677.16
2023-04-28T09:56:40.753Z,49647.25
2023-04-28T09:59:08.246Z,49649.25
2023-04-28T10:01:40.626Z,49629.31
2023-04-28T10:04:09.242Z,49585.47
2023-04-28T10:06:39.282Z,49657.22
2023-04-28T10:09:07.147Z,49651.25
2023-04-28T10:11:35.577Z,49641.28
2023-04-28T10:14:02.461Z,49667.19
2023-04-28T10:16:32.210Z,49651.25
2023-04-28T10:18:59.846Z,49645.28
2023-04-28T10:21:28.458Z,49659.22
2023-04-28T10:24:11.317Z,49667.19
2023-04-28T10:27:03.257Z,49641.28
2023-04-28T10:29:33.085Z,49643.28
2023-04-28T10:32:14.824Z,49643.28
2023-04-28T10:34:41.595Z,49635.31
2023-04-28T10:37:08.294Z,49629.31
2023-04-28T10:39:35.219Z,49635.31
2023-04-28T10:42:03.064Z,49639.28
2023-04-28T10:44:33.092Z,49645.28
2023-04-28T10:47:08.113Z,49667.19
2023-04-28T10:49:59.581Z,49623.34
2023-04-28T10:52:46.709Z,49627.31
2023-04-28T10:55:30.569Z,49631.31
2023-04-28T10:58:15.645Z,49651.25
2023-04-28T11:00:45.137Z,49623.34
2023-04-28T11:03:46.691Z,49631.31
2023-04-28T11:06:29.017Z,49627.31
2023-04-28T11:08:57.691Z,49675.19
2023-04-28T11:11:26.081Z,49661.22
2023-04-28T11:13:54.847Z,49643.28
2023-04-28T11:16:24.314Z,49653.25
2023-04-28T11:18:56.844Z,49647.25
2023-04-28T11:21:25.025Z,49627.31
2023-04-28T11:23:52.454Z,49637.28
2023-04-28T11:26:20.367Z,49593.44
2023-04-28T11:28:47.778Z,49655.25
2023-04-28T11:31:25.180Z,49643.28
2023-04-28T11:33:51.993Z,49627.31
2023-04-28T11:36:28.121Z,49655.25
2023-04-28T11:38:56.908Z,49675.19
2023-04-28T11:41:24.366Z,49633.31
2023-04-28T11:43:51.256Z,49655.25
2023-04-28T11:46:25.105Z,49631.31
2023-04-28T11:49:04.652Z,49625.34
2023-04-28T11:51:33.565Z,49647.25
2023-04-28T11:54:01.406Z,49669.19
2023-04-28T11:56:28.635Z,49663.22
2023-04-28T11:59:06.421Z,49653.25
2023-04-28T12:01:34.274Z,49645.28
2023-04-28T12:04:01.351Z,49673.19
2023-04-28T12:06:28.486Z,49665.22
2023-04-28T12:08:55.729Z,49659.22
2023-04-28T12:11:22.776Z,49675.19
2023-04-28T12:14:10.142Z,49655.25
2023-04-28T12:16:44.263Z,49663.22
2023-04-28T12:19:12.598Z,49663.22
2023-04-28T12:21:40.198Z,49647.25
2023-04-28T12:24:22.527Z,49667.19
2023-04-28T12:26:49.313Z,49635.31
2023-04-28T12:29:38.702Z,49661.22
2023-04-28T12:32:14.966Z,49679.16
2023-04-28T12:34:43.344Z,49655.25
2023-04-28T12:37:10.286Z,49679.16
2023-04-28T12:39:39.563Z,49665.22
2023-04-28T12:42:07.233Z,49635.31
2023-04-28T12:44:38.204Z,49679.16
2023-04-28T12:47:07.681Z,49641.28
2023-04-28T12:49:36.164Z,49639.28
2023-04-28T12:52:03.846Z,49701.09
2023-04-28T12:54:31.004Z,49667.19
2023-04-28T12:56:57.716Z,49653.25
2023-04-28T12:59:24.846Z,49653.25
2023-04-28T13:01:51.686Z,49653.25
2023-04-28T13:04:19.277Z,49663.22
2023-04-28T13:06:46.609Z,49693.13
2023-04-28T13:09:15.328Z,49641.28
2023-04-28T13:11:42.686Z,49651.25
2023-04-28T13:14:09.795Z,49615.38
2023-04-28T13:16:36.582Z,49643.28
2023-04-28T13:19:04.139Z,49623.34
2023-04-28T13:21:30.776Z,49651.25
2023-04-28T13:23:57.544Z,49641.28
2023-04-28T13:26:24.438Z,49663.22
2023-04-28T13:28:54.125Z,49643.28
2023-04-28T13:31:21.063Z,49653.25
2023-04-28T13:33:47.893Z,49637.28
2023-04-28T13:36:14.660Z,49635.31
2023-04-28T13:38:41.424Z,49639.28
2023-04-28T13:41:08.109Z,49661.22
2023-04-28T13:43:35.023Z,49635.31
2023-04-28T13:46:01.918Z,49615.38
2023-04-28T13:48:29.389Z,49681.16
2023-04-28T13:50:56.140Z,49655.25
2023-04-28T13:53:22.927Z,49689.13
2023-04-28T13:55:51.247Z,49683.16
2023-04-28T13:58:17.907Z,49665.22
2023-04-28T14:00:44.734Z,49663.22
2023-04-28T14:03:11.780Z,49695.09
2023-04-28T14:05:48.215Z,49661.22
2023-04-28T14:08:19.341Z,49665.22
2023-04-28T14:10:50.670Z,49659.22
2023-04-28T14:13:18.656Z,49687.13
2023-04-28T14:15:57.897Z,49669.19
2023-04-28T14:18:26.287Z,49667.19
2023-04-28T14:20:54.624Z,49703.09
2023-04-28T14:23:22.618Z,49655.25
2023-04-28T14:25:50.296Z,49677.16
2023-04-28T14:28:17.202Z,49669.19
2023-04-28T14:30:44.148Z,49665.22
2023-04-28T14:33:11.051Z,49675.19
2023-04-28T14:35:38.097Z,49655.25
2023-04-28T14:38:04.910Z,49685.13
2023-04-28T14:40:31.669Z,49671.19
2023-04-28T14:42:58.362Z,49667.19
2023-04-28T14:45:25.064Z,49699.09
2023-04-28T14:47:52.190Z,49667.19
2023-04-28T14:50:19.250Z,49659.22
2023-04-28T14:52:45.989Z,49687.13
2023-04-28T14:55:13.697Z,49681.16
2023-04-28T14:57:40.441Z,49619.34
2023-04-28T15:00:08.151Z,49691.13
2023-04-28T15:02:36.237Z,49663.22
2023-04-28T15:05:03.432Z,49667.19
2023-04-28T15:07:33.352Z,49723.03
2023-04-28T15:10:00.715Z,49697.09
2023-04-28T15:12:30.294Z,49641.28
2023-04-28T15:14:57.574Z,49673.19
2023-04-28T15:17:24.541Z,49679.16
2023-04-28T15:19:51.963Z,49635.31
2023-04-28T15:22:18.698Z,49727.00
2023-04-28T15:24:45.842Z,49655.25
2023-04-28T15:27:12.665Z,49665.22
2023-04-28T15:29:40.068Z,49697.09
2023-04-28T15:32:06.997Z,49633.31
2023-04-28T15:34:34.058Z,49657.22
2023-04-28T15:37:01.451Z,49705.06
2023-04-28T15:39:28.607Z,49675.19
2023-04-28T15:41:56.434Z,49637.28
2023-04-28T15:44:23.233Z,49677.16
2023-04-28T15:46:52.029Z,49643.28
2023-04-28T15:49:18.765Z,49715.03
2023-04-28T15:51:45.807Z,49663.22
2023-04-28T15:54:13.075Z,49687.13
2023-04-28T15:56:39.898Z,49647.25
2023-04-28T15:59:06.889Z,49615.38
2023-04-28T16:01:33.921Z,49655.25
2023-04-28T16:04:01.446Z,49669.19
2023-04-28T16:06:29.084Z,49681.16
2023-04-28T16:08:56.930Z,49663.22
2023-04-28T16:11:24.372Z,49647.25
2023-04-28T16:13:51.440Z,49653.25
2023-04-28T16:16:18.138Z,49655.25
2023-04-28T16:18:45.073Z,49645.28
2023-04-28T16:21:12.283Z,49635.31
2023-04-28T16:23:39.028Z,49691.13
2023-04-28T16:26:05.712Z,49669.19
2023-04-28T16:28:32.902Z,49679.16
2023-04-28T16:30:59.567Z,49675.19
2023-04-28T16:33:26.328Z,49659.22
2023-04-28T16:35:57.795Z,49657.22
2023-04-28T16:38:24.510Z,49713.06
2023-04-28T16:40:54.090Z,49619.34
2023-04-28T16:43:21.307Z,49687.13
2023-04-28T16:45:48.051Z,49655.25
2023-04-28T16:48:16.781Z,49663.22
2023-04-28T16:50:43.594Z,49679.16
2023-04-28T16:53:10.907Z,49673.19
2023-04-28T16:55:37.824Z,49719.03
2023-04-28T16:58:04.711Z,49667.19
2023-04-28T17:00:31.609Z,49673.19
2023-04-28T17:02:58.479Z,49643.28
2023-04-28T17:05:25.548Z,49699.09
2023-04-28T17:07:52.408Z,49683.16
2023-04-28T17:10:19.300Z,49645.28
2023-04-28T17:12:46.122Z,49677.16
2023-04-28T17:15:19.152Z,49651.25
2023-04-28T17:17:49.701Z,49663.22
2023-04-28T17:20:19.862Z,49695.09
2023-04-28T17:22:47.373Z,49661.22
2023-04-28T17:25:14.535Z,49705.06
2023-04-28T17:27:41.276Z,49659.22
2023-04-28T17:30:11.486Z,49675.19
2023-04-28T17:32:38.724Z,49653.25
2023-04-28T17:35:06.124Z,49661.22
2023-04-28T17:37:34.194Z,49663.22
2023-04-28T17:40:01.997Z,49683.16
2023-04-28T17:42:30.399Z,49641.28
2023-04-28T17:44:57.189Z,49683.16
2023-04-28T17:47:23.903Z,49691.13
2023-04-28T17:49:50.576Z,49711.06
2023-04-28T17:52:17.318Z,49683.16
2023-04-28T17:54:43.954Z,49671.19
2023-04-28T17:57:10.779Z,49675.19
2023-04-28T17:59:38.218Z,49687.13
2023-04-28T18:02:05.362Z,49667.19
2023-04-28T18:04:32.118Z,49719.03
2023-04-28T18:06:58.889Z,49705.06
2023-04-28T18:09:27.119Z,49677.16
2023-04-28T18:11:56.308Z,49701.09
2023-04-28T18:14:24.350Z,49713.06
2023-04-28T18:16:51.297Z,49695.09
2023-04-28T18:19:18.059Z,49713.06
2023-04-28T18:21:44.764Z,49719.03
2023-04-28T18:24:11.741Z,49715.03
2023-04-28T18:26:38.479Z,49707.06
2023-04-28T18:29:05.113Z,49689.13
2023-04-28T18:31:32.120Z,49715.03
2023-04-28T18:33:59.557Z,49705.06
2023-04-28T18:36:26.270Z,49701.09
2023-04-28T18:38:52.986Z,49731.00
2023-04-28T18:41:19.722Z,49707.06
2023-04-28T18:43:46.523Z,49691.13
2023-04-28T18:46:13.667Z,49679.16
2023-04-28T18:48:40.612Z,49734.97
2023-04-28T18:51:07.397Z,49707.06
2023-04-28T18:53:34.086Z,49691.13
2023-04-28T18:56:00.942Z,49711.06
2023-04-28T18:58:28.153Z,49725.00
2023-04-28T19:00:54.843Z,49691.13
2023-04-28T19:03:21.846Z,49697.09
2023-04-28T19:05:48.614Z,49695.09
2023-04-28T19:08:15.542Z,49701.09
2023-04-28T19:10:42.248Z,49683.16
2023-04-28T19:13:08.965Z,49701.09
2023-04-28T19:15:35.916Z,49697.09
2023-04-28T19:18:02.849Z,49705.06
2023-04-28T19:20:29.634Z,49727.00
2023-04-28T19:22:56.817Z,49731.00
2023-04-28T19:25:23.626Z,49705.06
2023-04-28T19:27:50.296Z,49691.13
2023-04-28T19:30:16.962Z,49715.03
2023-04-28T19:32:43.708Z,49711.06
2023-04-28T19:35:10.498Z,49679.16
2023-04-28T19:37:37.396Z,49705.06
2023-04-28T19:40:07.492Z,49721.03
2023-04-28T19:42:37.252Z,49701.09
2023-04-28T19:45:04.414Z,49675.19
2023-04-28T19:47:34.225Z,49740.97
2023-04-28T19:50:01.458Z,49715.03
2023-04-28T19:52:28.500Z,49715.03
2023-04-28T19:54:55.506Z,49758.91
2023-04-28T19:57:22.481Z,49709.06
2023-04-28T19:59:49.874Z,49721.03
2023-04-28T20:02:17.225Z,49738.97
2023-04-28T20:04:44.338Z,49746.94
2023-04-28T20:07:11.465Z,49713.06
2023-04-28T20:09:38.713Z,49713.06
2023-04-28T20:12:08.603Z,49711.06
2023-04-28T20:14:37.145Z,49719.03
2023-04-28T20:17:04.910Z,49723.03
2023-04-28T20:19:31.760Z,49719.03
2023-04-28T20:21:58.493Z,49691.13
2023-04-28T20:24:25.214Z,49727.00
2023-04-28T20:26:54.130Z,49717.03
2023-04-28T20:29:20.899Z,49733.00
2023-04-28T20:31:47.658Z,49695.09
2023-04-28T20:34:14.473Z,49715.03
2023-04-28T20:36:42.840Z,49707.06
2023-04-28T20:39:11.151Z,49687.13
2023-04-28T20:41:41.024Z,49719.03
2023-04-28T20:44:08.636Z,49719.03
2023-04-28T20:46:35.696Z,49703.09
2023-04-28T20:49:03.037Z,49734.97
2023-04-28T20:51:30.213Z,49685.13
2023-04-28T20:53:57.740Z,49725.00
2023-04-28T20:56:24.531Z,49727.00
2023-04-28T20:58:51.598Z,49742.94
2023-04-28T21:01:18.378Z,49693.13
2023-04-28T21:03:45.427Z,49756.91
2023-04-28T21:06:12.279Z,49719.03
2023-04-28T21:08:40.739Z,49723.03
2023-04-28T21:11:14.695Z,49725.00
2023-04-28T21:13:42.801Z,49760.91
2023-04-28T21:16:20.135Z,49734.97
2023-04-28T21:18:47.975Z,49738.97
2023-04-28T21:21:14.745Z,49719.03
2023-04-28T21:23:41.576Z,49715.03
2023-04-28T21:26:09.542Z,49774.84
2023-04-28T21:28:37.772Z,49693.13
2023-04-28T21:31:05.020Z,49715.03
2023-04-28T21:33:32.674Z,49715.03
2023-04-28T21:36:05.518Z,49729.00
2023-04-28T21:38:33.298Z,49746.94
2023-04-28T21:41:00.393Z,49707.06
2023-04-28T21:43:27.128Z,49738.97
2023-04-28T21:45:53.862Z,49740.97
2023-04-28T21:48:21.367Z,49723.03
2023-04-28T21:50:48.088Z,49715.03
2023-04-28T21:53:14.754Z,49770.88
2023-04-28T21:55:42.920Z,49711.06
2023-04-28T21:58:09.581Z,49715.03
2023-04-28T22:00:43.299Z,49758.91
2023-04-28T22:03:10.810Z,49736.97
2023-04-28T22:05:38.345Z,49738.97
2023-04-28T22:08:05.709Z,49715.03
2023-04-28T22:10:34.083Z,49744.94
2023-04-28T22:13:01.173Z,49740.97
2023-04-28T22:15:28.572Z,49734.97
2023-04-28T22:17:55.384Z,49711.06
2023-04-28T22:20:22.124Z,49727.00
2023-04-28T22:22:48.803Z,49729.00
2023-04-28T22:25:15.595Z,49736.97
2023-04-28T22:27:42.238Z,49738.97
2023-04-28T22:30:09.473Z,49746.94
2023-04-28T22:32:36.258Z,49723.03
2023-04-28T22:35:03.115Z,49715.03
2023-04-28T22:37:29.853Z,49727.00
2023-04-28T22:39:56.537Z,49750.94
2023-04-28T22:42:23.637Z,49701.09
2023-04-28T22:44:50.320Z,49731.00
2023-04-28T22:47:17.503Z,49719.03
2023-04-28T22:49:44.202Z,49733.00
2023-04-28T22:52:10.906Z,49723.03
2023-04-28T22:54:38.692Z,49736.97
2023-04-28T22:57:05.335Z,49727.00
2023-04-28T22:59:33.162Z,49713.06
2023-04-28T23:01:59.924Z,49760.91
2023-04-28T23:04:27.090Z,49721.03
2023-04-28T23:06:53.933Z,49734.97
2023-04-28T23:09:21.000Z,49750.94
2023-04-28T23:11:47.929Z,49776.84
2023-04-28T23:14:14.578Z,49746.94
2023-04-28T23:16:41.394Z,49770.88
2023-04-28T23:19:08.779Z,49758.91
2023-04-28T23:21:35.583Z,49725.00
2023-04-28T23:24:02.341Z,49731.00
2023-04-28T23:26:28.988Z,49727.00
2023-04-28T23:28:55.613Z,49770.88
2023-04-28T23:31:22.322Z,49750.94
2023-04-28T23:33:49.026Z,49756.91
2023-04-28T23:36:15.835Z,49729.00
2023-04-28T23:38:42.593Z,49744.94
2023-04-28T23:41:09.254Z,49717.03
2023-04-28T23:43:36.216Z,49736.97
2023-04-28T23:46:03.162Z,49719.03
2023-04-28T23:48:30.066Z,49742.94
2023-04-28T23:50:56.745Z,49742.94
2023-04-28T23:53:23.519Z,49742.94
2023-04-28T23:55:50.451Z,49742.94
2023-04-28T23:58:17.393Z,49740.97
